createdAt,value
2023-12-14T00:00:20.445Z,5.92
2023-12-14T00:02:47.956Z,5.95
2023-12-14T00:05:16.971Z,5.85
2023-12-14T00:07:44.568Z,5.86
2023-12-14T00:10:14.228Z,5.88
2023-12-14T00:12:41.899Z,5.92
2023-12-14T00:15:10.031Z,5.89
2023-12-14T00:17:38.046Z,5.86
2023-12-14T00:20:06.894Z,5.87
2023-12-14T00:22:36.120Z,5.92
2023-12-14T00:25:03.891Z,5.88
2023-12-14T00:27:31.460Z,5.81
2023-12-14T00:29:59.025Z,5.85
2023-12-14T00:32:26.602Z,5.87
2023-12-14T00:34:54.339Z,5.89
2023-12-14T00:37:22.081Z,5.87
2023-12-14T00:39:50.970Z,5.89
2023-12-14T00:42:18.568Z,5.81
2023-12-14T00:44:46.132Z,5.88
2023-12-14T00:47:13.743Z,5.96
2023-12-14T00:49:41.387Z,5.90
2023-12-14T00:52:08.971Z,5.87
2023-12-14T00:54:36.673Z,5.97
2023-12-14T00:57:06.026Z,6.01
2023-12-14T00:59:33.624Z,6.18
2023-12-14T01:02:01.345Z,6.02
2023-12-14T01:04:29.026Z,6.18
2023-12-14T01:06:56.616Z,6.15
2023-12-14T01:09:24.206Z,6.01
2023-12-14T01:11:51.914Z,6.17
2023-12-14T01:14:20.878Z,6.16
2023-12-14T01:16:48.529Z,6.11
2023-12-14T01:19:16.234Z,6.17
2023-12-14T01:21:43.875Z,6.10
2023-12-14T01:24:11.942Z,6.16
2023-12-14T01:26:39.531Z,6.22
2023-12-14T01:29:07.137Z,6.20
2023-12-14T01:31:36.125Z,6.10
2023-12-14T01:34:04.239Z,6.30
2023-12-14T01:36:31.867Z,6.22
2023-12-14T01:38:59.436Z,6.31
2023-12-14T01:41:26.990Z,6.28
2023-12-14T01:43:54.542Z,6.59
2023-12-14T01:46:22.083Z,6.49
2023-12-14T01:48:51.188Z,7.18
2023-12-14T01:51:18.820Z,7.63
2023-12-14T01:53:46.619Z,7.74
2023-12-14T01:56:14.245Z,7.10
2023-12-14T01:58:41.810Z,7.59
2023-12-14T02:01:18.088Z,7.09
2023-12-14T02:03:50.665Z,7.05
2023-12-14T02:06:19.583Z,7.51
2023-12-14T02:08:47.164Z,7.17
2023-12-14T02:11:14.764Z,7.06
2023-12-14T02:13:42.446Z,6.94
2023-12-14T02:16:10.480Z,7.35
2023-12-14T02:18:38.073Z,6.85
2023-12-14T02:21:06.367Z,6.57
2023-12-14T02:23:35.533Z,6.67
2023-12-14T02:26:03.276Z,6.56
2023-12-14T02:28:30.955Z,6.72
2023-12-14T02:30:58.487Z,6.43
2023-12-14T02:33:25.994Z,6.58
2023-12-14T02:35:53.662Z,6.33
2023-12-14T02:38:21.341Z,6.58
2023-12-14T02:40:51.466Z,6.40
2023-12-14T02:43:19.027Z,6.20
2023-12-14T02:45:46.645Z,6.37
2023-12-14T02:48:14.360Z,6.34
2023-12-14T02:50:41.965Z,6.47
2023-12-14T02:53:09.641Z,6.41
2023-12-14T02:55:37.500Z,6.72
2023-12-14T02:58:06.389Z,6.86
2023-12-14T03:00:33.989Z,6.50
2023-12-14T03:03:01.576Z,6.46
2023-12-14T03:05:29.185Z,6.58
2023-12-14T03:07:56.812Z,6.45
2023-12-14T03:10:24.359Z,6.35
2023-12-14T03:12:52.956Z,6.46
2023-12-14T03:15:21.958Z,6.41
2023-12-14T03:17:49.607Z,6.52
2023-12-14T03:20:17.404Z,6.28
2023-12-14T03:22:45.110Z,6.07
2023-12-14T03:25:13.028Z,6.07
2023-12-14T03:27:40.583Z,6.10
2023-12-14T03:30:11.190Z,5.93
2023-12-14T03:32:40.661Z,5.89
2023-12-14T03:35:09.484Z,6.03
2023-12-14T03:37:37.323Z,5.86
2023-12-14T03:40:05.840Z,5.80
2023-12-14T03:42:33.662Z,5.86
2023-12-14T03:45:01.451Z,5.84
2023-12-14T03:47:28.986Z,5.86
2023-12-14T03:49:58.202Z,5.77
2023-12-14T03:52:26.829Z,5.72
2023-12-14T03:54:54.378Z,5.71
2023-12-14T03:57:21.932Z,5.69
2023-12-14T03:59:49.459Z,5.68
2023-12-14T04:02:17.022Z,5.68
2023-12-14T04:04:44.706Z,5.75
2023-12-14T04:07:13.621Z,5.87
2023-12-14T04:09:41.193Z,5.91
2023-12-14T04:12:08.800Z,5.82
2023-12-14T04:14:36.315Z,5.89
2023-12-14T04:17:03.900Z,5.85
2023-12-14T04:19:31.472Z,5.82
2023-12-14T04:21:59.023Z,5.87
2023-12-14T04:24:28.733Z,5.92
2023-12-14T04:26:56.264Z,5.84
2023-12-14T04:29:23.822Z,5.97
2023-12-14T04:31:51.400Z,5.91
2023-12-14T04:34:20.149Z,5.86
2023-12-14T04:36:49.099Z,5.84
2023-12-14T04:39:17.724Z,5.73
2023-12-14T04:41:46.660Z,5.79
2023-12-14T04:44:14.214Z,5.82
2023-12-14T04:46:41.804Z,5.74
2023-12-14T04:49:09.414Z,5.79
2023-12-14T04:51:36.963Z,5.81
2023-12-14T04:54:04.741Z,5.86
2023-12-14T04:56:32.299Z,5.84
2023-12-14T04:59:01.231Z,5.80
2023-12-14T05:01:30.486Z,5.81
2023-12-14T05:03:59.265Z,5.75
2023-12-14T05:06:27.102Z,5.78
2023-12-14T05:08:54.759Z,5.78
2023-12-14T05:11:22.446Z,5.93
2023-12-14T05:13:50.024Z,5.98
2023-12-14T05:16:18.982Z,5.85
2023-12-14T05:18:46.584Z,6.04
2023-12-14T05:21:19.226Z,5.97
2023-12-14T05:23:46.923Z,6.04
2023-12-14T05:26:14.531Z,6.13
2023-12-14T05:28:42.817Z,5.96
2023-12-14T05:31:10.466Z,5.85
2023-12-14T05:33:40.410Z,5.95
2023-12-14T05:36:11.640Z,5.95
2023-12-14T05:38:40.713Z,6.08
2023-12-14T05:41:08.814Z,6.17
2023-12-14T05:43:37.503Z,6.15
2023-12-14T05:46:05.706Z,6.06
2023-12-14T05:48:33.398Z,5.95
2023-12-14T05:51:02.684Z,5.94
2023-12-14T05:53:30.293Z,5.93
2023-12-14T05:55:57.879Z,5.89
2023-12-14T05:58:25.432Z,5.92
2023-12-14T06:00:52.971Z,5.79
2023-12-14T06:03:20.483Z,5.80
2023-12-14T06:05:48.157Z,5.78
2023-12-14T06:08:17.150Z,5.77
2023-12-14T06:10:44.830Z,5.94
2023-12-14T06:13:12.329Z,5.95
2023-12-14T06:15:39.816Z,5.80
2023-12-14T06:18:07.451Z,5.79
2023-12-14T06:20:35.088Z,5.94
2023-12-14T06:23:02.640Z,6.08
2023-12-14T06:25:31.601Z,6.12
2023-12-14T06:27:59.215Z,6.11
2023-12-14T06:30:26.772Z,6.07
2023-12-14T06:32:54.356Z,5.91
2023-12-14T06:35:22.702Z,5.88
2023-12-14T06:37:50.498Z,6.09
2023-12-14T06:40:18.498Z,6.23
2023-12-14T06:42:47.397Z,6.60
2023-12-14T06:45:15.370Z,6.40
2023-12-14T06:47:44.524Z,6.44
2023-12-14T06:50:12.391Z,6.55
2023-12-14T06:52:40.015Z,6.32
2023-12-14T06:55:08.512Z,6.28
2023-12-14T06:57:36.436Z,6.29
2023-12-14T07:00:06.118Z,6.14
2023-12-14T07:02:34.399Z,6.07
2023-12-14T07:05:02.205Z,6.18
2023-12-14T07:07:29.807Z,6.18
2023-12-14T07:09:57.328Z,6.33
2023-12-14T07:12:24.875Z,6.19
2023-12-14T07:14:52.443Z,6.30
2023-12-14T07:17:21.532Z,6.21
2023-12-14T07:19:49.234Z,6.21
2023-12-14T07:22:16.744Z,6.18
2023-12-14T07:24:52.253Z,6.30
2023-12-14T07:27:20.685Z,6.15
2023-12-14T07:29:48.222Z,6.17
2023-12-14T07:32:15.786Z,6.03
2023-12-14T07:34:45.480Z,6.14
2023-12-14T07:37:13.358Z,6.15
2023-12-14T07:39:40.915Z,5.90
2023-12-14T07:42:08.497Z,5.93
2023-12-14T07:44:36.601Z,6.06
2023-12-14T07:47:04.420Z,5.96
2023-12-14T07:49:31.988Z,6.06
2023-12-14T07:52:00.863Z,6.12
2023-12-14T07:54:29.437Z,6.29
2023-12-14T07:56:57.011Z,6.59
2023-12-14T07:59:24.589Z,6.62
2023-12-14T08:01:52.254Z,6.86
2023-12-14T08:04:19.891Z,6.91
2023-12-14T08:06:47.455Z,7.06
2023-12-14T08:09:16.311Z,7.19
2023-12-14T08:11:44.037Z,6.99
2023-12-14T08:14:11.614Z,6.97
2023-12-14T08:16:39.162Z,6.73
2023-12-14T08:19:06.716Z,6.61
2023-12-14T08:21:34.433Z,6.19
2023-12-14T08:24:01.955Z,6.03
2023-12-14T08:26:30.845Z,5.89
2023-12-14T08:28:58.358Z,5.85
2023-12-14T08:31:26.208Z,5.89
2023-12-14T08:33:54.329Z,5.87
2023-12-14T08:36:21.914Z,6.02
2023-12-14T08:38:49.424Z,6.18
2023-12-14T08:41:17.581Z,6.21
2023-12-14T08:43:46.609Z,6.40
2023-12-14T08:46:14.362Z,6.38
2023-12-14T08:48:41.981Z,6.25
2023-12-14T08:51:09.524Z,6.51
2023-12-14T08:53:37.039Z,6.86
2023-12-14T08:56:04.968Z,6.83
2023-12-14T08:58:32.508Z,6.70
2023-12-14T09:01:01.465Z,7.12
2023-12-14T09:03:29.143Z,7.15
2023-12-14T09:05:59.702Z,7.25
2023-12-14T09:08:27.351Z,6.82
2023-12-14T09:10:54.959Z,6.88
2023-12-14T09:13:22.475Z,7.02
2023-12-14T09:15:53.438Z,6.80
2023-12-14T09:18:23.843Z,6.89
2023-12-14T09:20:51.771Z,6.79
2023-12-14T09:23:20.285Z,6.84
2023-12-14T09:25:48.043Z,7.06
2023-12-14T09:28:15.613Z,6.91
2023-12-14T09:30:43.209Z,6.71
2023-12-14T09:33:10.929Z,6.90
2023-12-14T09:35:39.847Z,6.93
2023-12-14T09:38:08.913Z,6.77
2023-12-14T09:40:36.534Z,6.76
2023-12-14T09:43:07.455Z,6.81
2023-12-14T09:45:37.076Z,6.91
2023-12-14T09:48:05.240Z,7.03
2023-12-14T09:50:34.651Z,6.92
2023-12-14T09:53:03.556Z,6.95
2023-12-14T09:55:32.345Z,6.93
2023-12-14T09:57:59.888Z,6.87
2023-12-14T10:00:38.932Z,7.00
2023-12-14T10:03:27.228Z,7.25
2023-12-14T10:05:56.297Z,7.46
2023-12-14T10:08:26.383Z,7.17
2023-12-14T10:10:56.407Z,7.15
2023-12-14T10:13:38.573Z,7.17
2023-12-14T10:16:06.627Z,7.29
2023-12-14T10:18:36.941Z,7.74
2023-12-14T10:21:04.863Z,7.72
2023-12-14T10:23:34.015Z,7.85
2023-12-14T10:26:01.783Z,7.69
2023-12-14T10:28:29.908Z,7.84
2023-12-14T10:30:57.499Z,7.59
2023-12-14T10:33:25.125Z,7.89
2023-12-14T10:35:53.053Z,7.16
2023-12-14T10:38:22.260Z,7.02
2023-12-14T10:40:54.222Z,7.15
2023-12-14T10:43:42.745Z,7.77
2023-12-14T10:46:12.101Z,7.48
2023-12-14T10:48:42.563Z,7.55
2023-12-14T10:51:11.536Z,7.72
2023-12-14T10:53:40.044Z,7.86
2023-12-14T10:56:13.274Z,8.08
2023-12-14T10:58:48.795Z,7.62
2023-12-14T11:01:17.624Z,7.95
2023-12-14T11:03:46.175Z,7.42
2023-12-14T11:06:30.047Z,7.26
2023-12-14T11:08:59.318Z,7.56
2023-12-14T11:11:32.111Z,7.56
2023-12-14T11:13:59.773Z,7.84
2023-12-14T11:16:30.177Z,7.82
2023-12-14T11:19:26.808Z,7.66
2023-12-14T11:22:25.799Z,7.55
2023-12-14T11:24:55.186Z,7.56
2023-12-14T11:27:28.949Z,7.34
2023-12-14T11:29:56.485Z,7.28
2023-12-14T11:32:24.128Z,7.02
2023-12-14T11:34:51.694Z,7.00
2023-12-14T11:37:18.757Z,7.19
2023-12-14T11:39:47.939Z,7.10
2023-12-14T11:42:19.193Z,7.23
2023-12-14T11:44:48.345Z,7.35
2023-12-14T11:47:16.172Z,7.16
2023-12-14T11:49:44.297Z,6.97
2023-12-14T11:52:12.246Z,7.21
2023-12-14T11:54:39.801Z,7.50
2023-12-14T11:57:10.053Z,7.43
2023-12-14T11:59:39.122Z,7.31
2023-12-14T12:02:08.802Z,7.34
2023-12-14T12:04:37.403Z,7.74
2023-12-14T12:07:06.797Z,7.44
2023-12-14T12:09:36.097Z,7.55
2023-12-14T12:12:04.283Z,7.84
2023-12-14T12:14:31.873Z,7.40
2023-12-14T12:16:59.449Z,7.16
2023-12-14T12:19:28.440Z,7.46
2023-12-14T12:21:56.009Z,7.43
2023-12-14T12:24:27.214Z,7.66
2023-12-14T12:26:55.328Z,7.38
2023-12-14T12:29:23.014Z,7.75
2023-12-14T12:31:50.681Z,7.73
2023-12-14T12:34:18.314Z,7.64
2023-12-14T12:36:47.164Z,7.83
2023-12-14T12:39:14.712Z,7.81
2023-12-14T12:41:42.305Z,7.86
2023-12-14T12:44:10.526Z,8.02
2023-12-14T12:46:38.181Z,7.93
2023-12-14T12:49:06.868Z,7.84
2023-12-14T12:51:36.194Z,7.67
2023-12-14T12:54:12.458Z,7.34
2023-12-14T12:56:41.386Z,7.18
2023-12-14T12:59:10.336Z,7.16
2023-12-14T13:01:39.208Z,7.33
2023-12-14T13:04:07.479Z,7.36
2023-12-14T13:06:35.000Z,7.51
2023-12-14T13:09:02.491Z,7.15
2023-12-14T13:11:31.435Z,7.33
2023-12-14T13:13:58.976Z,7.53
2023-12-14T13:16:28.715Z,7.52
2023-12-14T13:18:58.740Z,7.68
2023-12-14T13:21:26.413Z,8.18
2023-12-14T13:23:54.193Z,8.12
2023-12-14T13:26:21.805Z,7.66
2023-12-14T13:28:50.751Z,7.62
2023-12-14T13:31:18.302Z,8.02
2023-12-14T13:33:47.676Z,7.98
2023-12-14T13:36:15.374Z,8.21
2023-12-14T13:38:43.151Z,8.35
2023-12-14T13:41:10.881Z,7.92
2023-12-14T13:43:38.423Z,7.93
2023-12-14T13:46:18.089Z,8.00
2023-12-14T13:48:49.353Z,7.76
2023-12-14T13:51:16.936Z,7.45
2023-12-14T13:53:44.782Z,7.50
2023-12-14T13:56:12.543Z,7.77
2023-12-14T13:58:40.204Z,7.73
2023-12-14T14:01:09.192Z,7.73
2023-12-14T14:03:38.864Z,7.77
2023-12-14T14:06:07.134Z,7.61
2023-12-14T14:08:34.821Z,7.40
2023-12-14T14:11:02.941Z,7.59
2023-12-14T14:13:31.617Z,7.45
2023-12-14T14:15:59.113Z,7.23
2023-12-14T14:18:28.055Z,7.02
2023-12-14T14:20:55.973Z,7.11
2023-12-14T14:23:23.622Z,7.21
2023-12-14T14:25:54.916Z,7.22
2023-12-14T14:28:25.587Z,7.47
2023-12-14T14:30:54.132Z,7.14
2023-12-14T14:33:22.241Z,7.15
2023-12-14T14:35:52.018Z,7.27
2023-12-14T14:38:20.630Z,7.18
2023-12-14T14:40:48.165Z,7.06
2023-12-14T14:43:16.030Z,6.91
2023-12-14T14:45:45.024Z,6.94
2023-12-14T14:48:12.670Z,6.95
2023-12-14T14:50:40.222Z,6.88
2023-12-14T14:53:09.149Z,6.91
2023-12-14T14:55:36.826Z,6.98
2023-12-14T14:58:04.380Z,6.90
2023-12-14T15:00:33.441Z,6.91
2023-12-14T15:03:04.345Z,6.97
2023-12-14T15:05:32.855Z,6.97
2023-12-14T15:08:00.652Z,7.26
2023-12-14T15:10:29.945Z,7.29
2023-12-14T15:12:57.441Z,7.20
2023-12-14T15:15:24.970Z,7.36
2023-12-14T15:17:52.541Z,7.18
2023-12-14T15:20:20.336Z,7.25
2023-12-14T15:22:47.906Z,7.65
2023-12-14T15:25:17.206Z,7.56
2023-12-14T15:27:46.179Z,7.52
2023-12-14T15:30:14.803Z,8.37
2023-12-14T15:32:42.881Z,8.87
2023-12-14T15:35:11.104Z,8.04
2023-12-14T15:37:38.762Z,8.37
2023-12-14T15:40:07.525Z,8.16
2023-12-14T15:42:35.250Z,8.00
2023-12-14T15:45:09.489Z,8.01
2023-12-14T15:47:37.811Z,8.00
2023-12-14T15:50:06.767Z,7.37
2023-12-14T15:52:34.550Z,6.77
2023-12-14T15:55:02.435Z,6.68
2023-12-14T15:57:30.638Z,6.40
2023-12-14T15:59:58.378Z,6.28
2023-12-14T16:02:27.249Z,6.31
2023-12-14T16:04:54.875Z,6.17
2023-12-14T16:07:22.679Z,6.25
2023-12-14T16:09:50.529Z,6.19
2023-12-14T16:12:18.041Z,6.12
2023-12-14T16:14:45.552Z,5.99
2023-12-14T16:17:13.096Z,5.95
2023-12-14T16:19:42.020Z,5.89
2023-12-14T16:22:09.580Z,5.73
2023-12-14T16:24:37.094Z,5.70
2023-12-14T16:27:05.215Z,5.77
2023-12-14T16:29:33.749Z,5.62
2023-12-14T16:32:01.450Z,5.68
2023-12-14T16:34:29.097Z,5.65
2023-12-14T16:36:58.027Z,5.95
2023-12-14T16:39:28.724Z,6.02
2023-12-14T16:41:56.260Z,5.81
2023-12-14T16:44:25.134Z,5.77
2023-12-14T16:46:53.046Z,5.91
2023-12-14T16:49:20.653Z,5.84
2023-12-14T16:51:48.293Z,5.94
2023-12-14T16:54:17.159Z,5.95
2023-12-14T16:56:44.753Z,5.86
2023-12-14T16:59:14.334Z,5.92
2023-12-14T17:01:42.959Z,5.82
2023-12-14T17:04:10.595Z,5.64
2023-12-14T17:06:38.105Z,5.74
2023-12-14T17:09:05.687Z,5.81
2023-12-14T17:11:34.622Z,5.77
2023-12-14T17:14:02.196Z,5.69
2023-12-14T17:16:29.904Z,5.82
2023-12-14T17:18:57.517Z,5.76
2023-12-14T17:21:27.405Z,5.90
2023-12-14T17:23:56.710Z,5.85
2023-12-14T17:26:26.925Z,5.94
2023-12-14T17:28:58.204Z,5.85
2023-12-14T17:31:26.918Z,6.07
2023-12-14T17:33:55.168Z,6.03
2023-12-14T17:36:22.746Z,5.82
2023-12-14T17:38:51.183Z,5.83
2023-12-14T17:41:18.854Z,5.88
2023-12-14T17:43:46.443Z,5.93
2023-12-14T17:46:16.252Z,5.79
2023-12-14T17:48:44.247Z,5.80
2023-12-14T17:51:11.831Z,5.82
2023-12-14T17:53:39.860Z,5.85
2023-12-14T17:56:08.379Z,5.77
2023-12-14T17:58:35.940Z,5.74
2023-12-14T18:01:05.915Z,5.78
2023-12-14T18:03:35.341Z,5.86
2023-12-14T18:06:03.818Z,5.84
2023-12-14T18:08:31.708Z,5.80
2023-12-14T18:10:59.308Z,5.83
2023-12-14T18:13:27.328Z,5.87
2023-12-14T18:15:54.868Z,5.81
2023-12-14T18:18:22.771Z,5.86
2023-12-14T18:20:51.851Z,5.86
2023-12-14T18:23:19.459Z,6.03
2023-12-14T18:25:47.301Z,6.15
2023-12-14T18:28:15.236Z,5.99
2023-12-14T18:30:42.934Z,6.00
2023-12-14T18:33:11.812Z,5.86
2023-12-14T18:35:39.377Z,5.91
2023-12-14T18:38:08.716Z,5.89
2023-12-14T18:40:36.315Z,5.90
2023-12-14T18:43:03.897Z,5.84
2023-12-14T18:45:31.440Z,5.87
2023-12-14T18:47:59.177Z,5.79
2023-12-14T18:50:26.902Z,5.81
2023-12-14T18:52:57.881Z,5.92
2023-12-14T18:55:27.050Z,5.92
2023-12-14T18:57:55.322Z,5.94
2023-12-14T19:00:24.121Z,5.91
2023-12-14T19:02:51.696Z,5.95
2023-12-14T19:05:24.708Z,6.08
2023-12-14T19:07:52.791Z,5.97
2023-12-14T19:10:21.347Z,5.97
2023-12-14T19:12:50.471Z,5.87
2023-12-14T19:15:18.586Z,5.89
2023-12-14T19:17:46.223Z,5.94
2023-12-14T19:20:14.579Z,5.91
2023-12-14T19:22:42.281Z,5.89
2023-12-14T19:25:12.099Z,5.83
2023-12-14T19:27:41.009Z,5.80
2023-12-14T19:30:14.613Z,5.99
2023-12-14T19:32:42.412Z,6.07
2023-12-14T19:35:10.388Z,5.85
2023-12-14T19:37:38.327Z,5.81
2023-12-14T19:40:07.275Z,5.82
2023-12-14T19:42:35.682Z,5.95
2023-12-14T19:45:03.980Z,5.81
2023-12-14T19:47:35.586Z,5.78
2023-12-14T19:50:04.352Z,5.68
2023-12-14T19:52:31.943Z,5.64
2023-12-14T19:54:59.602Z,5.81
2023-12-14T19:57:27.348Z,5.69
2023-12-14T19:59:54.880Z,5.69
2023-12-14T20:02:22.569Z,5.88
2023-12-14T20:04:51.570Z,5.74
2023-12-14T20:07:20.253Z,5.50
2023-12-14T20:09:57.417Z,5.38
2023-12-14T20:12:29.248Z,5.35
2023-12-14T20:14:56.795Z,5.29
2023-12-14T20:17:24.446Z,5.29
2023-12-14T20:19:53.433Z,5.30
2023-12-14T20:22:21.004Z,5.30
2023-12-14T20:24:49.187Z,5.29
2023-12-14T20:27:17.563Z,5.39
2023-12-14T20:29:45.308Z,5.26
2023-12-14T20:32:12.909Z,5.15
2023-12-14T20:34:40.680Z,5.12
2023-12-14T20:37:09.697Z,5.17
2023-12-14T20:39:37.312Z,5.08
2023-12-14T20:42:05.462Z,5.06
2023-12-14T20:44:33.041Z,5.00
2023-12-14T20:47:00.611Z,5.03
2023-12-14T20:49:28.271Z,4.98
2023-12-14T20:51:55.910Z,5.07
2023-12-14T20:54:24.819Z,5.02
2023-12-14T20:56:52.459Z,4.98
2023-12-14T20:59:20.100Z,4.97
2023-12-14T21:01:47.798Z,4.94
2023-12-14T21:04:15.474Z,4.90
2023-12-14T21:06:43.172Z,4.87
2023-12-14T21:09:10.809Z,4.92
2023-12-14T21:11:39.701Z,5.07
2023-12-14T21:14:13.041Z,5.07
2023-12-14T21:16:40.721Z,4.92
2023-12-14T21:19:08.360Z,4.69
2023-12-14T21:21:36.016Z,4.73
2023-12-14T21:24:03.648Z,4.63
2023-12-14T21:26:36.723Z,4.56
2023-12-14T21:29:07.344Z,4.57
2023-12-14T21:31:35.077Z,4.70
2023-12-14T21:34:02.826Z,4.65
2023-12-14T21:36:30.383Z,4.58
2023-12-14T21:38:57.953Z,4.66
2023-12-14T21:41:25.594Z,4.53
2023-12-14T21:43:53.207Z,4.49
2023-12-14T21:46:22.123Z,4.59
2023-12-14T21:48:49.698Z,4.73
2023-12-14T21:51:17.319Z,4.78
2023-12-14T21:53:44.875Z,4.92
2023-12-14T21:56:12.550Z,4.72
2023-12-14T21:58:40.604Z,4.73
2023-12-14T22:01:08.191Z,4.55
2023-12-14T22:03:37.093Z,4.57
2023-12-14T22:06:04.827Z,4.63
2023-12-14T22:08:32.430Z,4.75
2023-12-14T22:11:00.045Z,4.63
2023-12-14T22:13:28.152Z,4.71
2023-12-14T22:15:55.696Z,4.71
2023-12-14T22:18:23.353Z,4.82
2023-12-14T22:20:52.268Z,4.88
2023-12-14T22:23:19.828Z,4.91
2023-12-14T22:25:47.513Z,4.94
2023-12-14T22:28:15.142Z,4.56
2023-12-14T22:30:42.751Z,4.79
2023-12-14T22:33:10.483Z,4.70
2023-12-14T22:35:38.063Z,4.76
2023-12-14T22:38:06.976Z,4.63
2023-12-14T22:40:34.848Z,4.47
2023-12-14T22:43:02.408Z,4.62
2023-12-14T22:45:31.479Z,4.53
2023-12-14T22:47:59.928Z,4.43
2023-12-14T22:50:29.400Z,4.28
2023-12-14T22:52:57.089Z,4.45
2023-12-14T22:55:26.164Z,4.36
2023-12-14T22:57:54.224Z,4.25
2023-12-14T23:00:27.956Z,4.28
2023-12-14T23:02:56.205Z,4.17
2023-12-14T23:05:23.868Z,4.19
2023-12-14T23:07:51.760Z,4.25
2023-12-14T23:10:19.707Z,4.31
2023-12-14T23:12:48.838Z,4.10
2023-12-14T23:15:16.591Z,4.11
2023-12-14T23:17:44.479Z,4.19
2023-12-14T23:20:13.145Z,4.28
2023-12-14T23:22:40.758Z,4.33
2023-12-14T23:25:09.136Z,4.35
2023-12-14T23:27:37.042Z,4.18
2023-12-14T23:30:07.577Z,4.04
2023-12-14T23:32:35.699Z,4.07
2023-12-14T23:35:03.324Z,4.11
2023-12-14T23:37:30.904Z,4.04
2023-12-14T23:39:58.429Z,3.93
2023-12-14T23:42:25.956Z,3.93
2023-12-14T23:44:53.554Z,3.95
2023-12-14T23:47:22.680Z,3.85
2023-12-14T23:49:50.317Z,3.97
2023-12-14T23:52:17.900Z,3.85
2023-12-14T23:54:45.551Z,3.90
2023-12-14T23:57:13.224Z,3.85
2023-12-14T23:59:40.758Z,3.76
